createdAt,value
2019-04-28T02:44:25.151Z,7.53
2019-04-28T02:49:40.669Z,7.55
2019-04-28T02:52:16.952Z,7.23
2019-04-28T02:54:45.502Z,7.50
2019-04-28T02:57:14.683Z,7.13
2019-04-28T02:59:44.723Z,6.80
2019-04-28T03:02:14.281Z,7.10
2019-04-28T03:04:42.957Z,6.73
2019-04-28T03:07:14.496Z,6.17
2019-04-28T03:09:42.172Z,7.07
2019-04-28T03:12:11.395Z,6.57
2019-04-28T03:14:44.130Z,6.93
2019-04-28T03:17:11.165Z,8.50
2019-04-28T03:19:41.583Z,6.53
2019-04-28T03:22:11.579Z,7.20
2019-04-28T03:24:41.454Z,6.17
2019-04-28T03:27:17.503Z,6.70
2019-04-28T03:29:52.509Z,5.83
2019-04-28T03:32:40.012Z,7.17
2019-04-28T03:34:55.440Z,6.10
2019-04-28T03:37:24.506Z,5.97
2019-04-28T03:39:53.302Z,6.10
2019-04-28T03:42:21.997Z,6.27
2019-04-28T03:44:51.379Z,5.83
2019-04-28T03:47:21.018Z,5.03
2019-04-28T03:49:50.723Z,6.17
2019-04-28T03:52:21.321Z,5.50
2019-04-28T03:54:51.451Z,6.47
2019-04-28T03:57:21.492Z,6.73
2019-04-28T04:30:02.038Z,5.97
2019-04-28T04:32:33.870Z,4.97
2019-04-28T08:27:27.103Z,5.70
2019-04-28T10:13:57.351Z,3.60
2019-04-28T10:21:25.271Z,4.50
2019-04-28T10:23:54.050Z,4.67
2019-04-28T10:26:25.604Z,3.10
2019-04-28T10:28:54.308Z,1.67
2019-04-28T10:31:22.986Z,1.60
2019-04-28T10:33:53.386Z,1.53
2019-04-28T10:36:22.086Z,1.57
2019-04-28T10:38:52.391Z,1.50
2019-04-28T10:41:22.706Z,1.70
2019-04-28T10:43:51.479Z,1.43
2019-04-28T10:46:20.282Z,1.60
2019-04-28T10:48:49.100Z,1.90
2019-04-28T10:51:17.752Z,2.00
2019-04-28T10:53:46.831Z,2.20
2019-04-28T10:56:15.675Z,2.40
2019-04-28T10:58:45.919Z,2.87
2019-04-28T11:01:14.733Z,3.00
2019-04-28T11:03:45.113Z,3.35
2019-04-28T11:06:13.758Z,3.57
2019-04-28T11:08:44.462Z,4.20
2019-04-28T11:11:15.095Z,4.43
2019-04-28T11:13:44.243Z,4.03
2019-04-28T11:16:14.653Z,3.27
2019-04-28T11:18:43.851Z,4.07
2019-04-28T11:21:12.615Z,4.50
2019-04-28T11:23:41.290Z,4.13
2019-04-28T11:26:09.948Z,4.10
2019-04-28T11:28:38.723Z,3.97
2019-04-28T11:31:07.634Z,4.20
2019-04-28T11:33:40.972Z,3.87
2019-04-28T11:36:09.697Z,4.67
2019-04-28T11:38:39.888Z,4.53
2019-04-28T11:41:11.418Z,4.60
2019-04-28T11:43:39.305Z,3.97
2019-04-28T11:46:09.586Z,4.33
2019-04-28T11:48:38.723Z,4.30
2019-04-28T11:51:07.420Z,4.50
2019-04-28T11:53:36.000Z,4.80
2019-04-28T11:56:04.553Z,4.80
2019-04-28T11:58:33.334Z,5.40
2019-04-28T12:01:02.190Z,5.10
2019-04-28T12:03:30.758Z,5.10
2019-04-28T12:05:59.296Z,5.20
2019-04-28T12:08:29.162Z,5.30
2019-04-28T12:11:05.110Z,5.30
2019-04-28T12:13:52.924Z,4.90
2019-04-28T12:16:23.173Z,4.80
2019-04-28T12:19:02.242Z,5.17
2019-04-28T12:21:30.961Z,4.83
2019-04-28T12:23:59.687Z,5.50
2019-04-28T12:26:28.509Z,4.80
2019-04-28T12:28:57.104Z,4.77
2019-04-28T12:31:25.726Z,4.33
2019-04-28T12:33:54.176Z,4.87
2019-04-28T12:36:22.726Z,5.63
2019-04-28T12:38:51.833Z,4.57
2019-04-28T12:41:20.522Z,4.90
2019-04-28T12:43:50.801Z,5.07
2019-04-28T12:46:19.429Z,5.60
2019-04-28T12:48:49.725Z,5.33
2019-04-28T12:51:18.324Z,5.10
2019-04-28T12:53:46.983Z,4.70
2019-04-28T12:56:15.669Z,5.60
2019-04-28T12:58:44.242Z,4.60
2019-04-28T13:01:30.518Z,5.10
2019-04-28T13:04:00.670Z,5.63
2019-04-28T13:06:29.189Z,4.50
2019-04-28T13:08:58.134Z,4.20
2019-04-28T13:11:26.946Z,4.37
2019-04-28T13:13:55.721Z,4.40
2019-04-28T13:16:24.531Z,4.60
2019-04-28T13:18:53.617Z,5.47
2019-04-28T13:21:23.003Z,4.87
2019-04-28T13:23:51.828Z,5.03
2019-04-28T13:26:20.486Z,4.37
2019-04-28T13:28:49.455Z,4.67
2019-04-28T13:31:18.066Z,4.53
2019-04-28T13:33:55.969Z,4.77
2019-04-28T13:36:17.441Z,4.57
2019-04-28T13:38:47.141Z,5.37
2019-04-28T13:41:15.823Z,5.10
2019-04-28T13:43:44.569Z,5.90
2019-04-28T13:46:13.316Z,5.27
2019-04-28T13:48:42.231Z,5.57
2019-04-28T13:51:10.955Z,5.00
2019-04-28T13:53:39.681Z,4.67
2019-04-28T13:56:08.429Z,5.20
2019-04-28T13:58:38.595Z,5.60
2019-04-28T14:01:08.955Z,5.33
2019-04-28T14:03:39.381Z,5.30
2019-04-28T14:06:09.717Z,4.73
2019-04-28T14:08:38.537Z,5.40
2019-04-28T14:11:07.223Z,5.70
2019-04-28T14:13:35.838Z,5.20
2019-04-28T14:16:04.619Z,5.40
2019-04-28T14:18:33.440Z,5.80
2019-04-28T14:21:02.095Z,5.67
2019-04-28T14:23:30.775Z,5.40
2019-04-28T14:26:00.911Z,5.53
2019-04-28T14:28:29.616Z,5.70
2019-04-28T14:30:59.798Z,4.77
2019-04-28T14:33:30.684Z,5.40
2019-04-28T14:35:59.419Z,4.97
2019-04-28T14:38:28.617Z,6.37
2019-04-28T14:40:57.873Z,5.57
2019-04-28T14:43:27.008Z,5.20
2019-04-28T14:45:55.815Z,5.70
2019-04-28T14:48:24.623Z,6.20
2019-04-28T14:50:53.216Z,4.90
2019-04-28T14:53:21.904Z,4.80
2019-04-28T14:55:50.608Z,14.73
2019-04-28T14:58:19.128Z,6.70
2019-04-28T15:01:07.480Z,6.87
2019-04-28T15:03:40.299Z,7.00
2019-04-28T15:06:19.259Z,5.57
2019-04-28T15:08:52.472Z,8.50
2019-04-28T15:11:22.825Z,8.30
2019-04-28T15:13:51.549Z,5.63
2019-04-28T15:16:20.314Z,5.43
2019-04-28T15:18:49.000Z,6.77
2019-04-28T15:21:18.026Z,9.50
2019-04-28T15:23:47.087Z,5.67
2019-04-28T15:26:15.860Z,7.73
2019-04-28T15:28:44.544Z,5.70
2019-04-28T15:31:13.224Z,6.30
2019-04-28T15:33:41.790Z,6.53
2019-04-28T15:36:13.852Z,6.17
2019-04-28T15:38:42.556Z,5.57
2019-04-28T15:41:21.511Z,5.90
2019-04-28T15:43:41.650Z,6.07
2019-04-28T15:46:10.331Z,7.33
2019-04-28T15:48:39.576Z,7.27
2019-04-28T15:51:09.520Z,6.80
2019-04-28T15:53:38.370Z,9.40
2019-04-28T15:56:20.278Z,10.00
2019-04-28T15:58:49.044Z,10.03
2019-04-28T16:01:17.956Z,7.60
2019-04-28T16:03:46.687Z,9.20
2019-04-28T16:06:16.391Z,9.00
2019-04-28T16:08:45.029Z,8.63
2019-04-28T16:11:13.850Z,9.33
2019-04-28T16:13:43.771Z,10.70
2019-04-28T16:16:12.617Z,10.03
2019-04-28T16:18:41.387Z,9.00
2019-04-28T16:21:10.128Z,8.87
2019-04-28T16:23:39.716Z,8.87
2019-04-28T16:26:08.421Z,10.23
2019-04-28T16:28:37.198Z,10.70
2019-04-28T16:31:05.927Z,8.40
2019-04-28T16:33:34.606Z,7.70
2019-04-28T16:36:04.782Z,7.90
2019-04-28T16:38:34.954Z,7.73
2019-04-28T16:41:04.235Z,7.50
2019-04-28T16:43:34.985Z,7.27
2019-04-28T16:46:03.907Z,6.97
2019-04-28T16:48:34.819Z,7.00
2019-04-28T16:51:04.169Z,7.47
2019-04-28T16:53:33.453Z,8.20
2019-04-28T16:56:18.982Z,8.20
2019-04-28T16:58:52.247Z,8.03
2019-04-28T17:01:25.523Z,7.30
2019-04-28T17:03:54.133Z,8.10
2019-04-28T17:06:22.785Z,8.27
2019-04-28T17:08:51.321Z,9.50
2019-04-28T17:11:20.042Z,7.93
2019-04-28T17:13:48.947Z,8.47
2019-04-28T17:16:17.649Z,7.90
2019-04-28T17:18:46.388Z,7.90
2019-04-28T17:21:15.567Z,9.00
2019-04-28T17:23:44.341Z,9.20
2019-04-28T17:26:13.347Z,7.10
2019-04-28T17:28:41.993Z,7.37
2019-04-28T17:31:12.836Z,8.57
2019-04-28T17:33:41.824Z,8.50
2019-04-28T17:36:10.563Z,7.97
2019-04-28T17:38:39.274Z,9.83
2019-04-28T17:41:10.054Z,8.80
2019-04-28T17:43:38.858Z,9.00
2019-04-28T17:46:09.028Z,9.30
2019-04-28T17:48:40.045Z,9.73
2019-04-28T17:51:09.385Z,9.47
2019-04-28T17:53:40.431Z,8.93
2019-04-28T17:56:09.653Z,9.60
2019-04-28T17:58:38.214Z,9.50
2019-04-28T18:01:08.522Z,9.63
2019-04-28T18:03:56.556Z,9.27
2019-04-28T18:06:27.511Z,9.77
2019-04-28T18:26:40.147Z,9.90
2019-04-28T18:42:44.495Z,8.97
2019-04-28T18:45:15.847Z,9.30
2019-04-28T18:47:45.775Z,8.97
2019-04-28T18:50:16.651Z,10.83
2019-04-28T18:52:45.317Z,9.50
2019-04-28T18:55:15.244Z,9.90
2019-04-28T18:57:43.964Z,8.67
2019-04-28T19:00:13.947Z,9.10
2019-04-28T19:02:44.345Z,8.60
2019-04-28T19:05:13.248Z,9.93
2019-04-28T19:07:49.084Z,9.40
2019-04-28T19:10:39.991Z,9.50
2019-04-28T19:13:20.529Z,9.97
2019-04-28T19:16:08.514Z,9.97
2019-04-28T19:18:42.881Z,9.80
2019-04-28T19:21:11.491Z,10.87
2019-04-28T19:23:41.094Z,10.60
2019-04-28T19:26:09.790Z,10.53
2019-04-28T19:28:40.378Z,10.40
2019-04-28T19:31:09.039Z,10.03
2019-04-28T19:33:37.706Z,9.70
2019-04-28T19:36:06.330Z,10.20
2019-04-28T19:38:35.065Z,11.17
2019-04-28T19:41:05.302Z,9.60
2019-04-28T19:43:36.138Z,10.17
2019-04-28T19:46:07.956Z,10.47
2019-04-28T19:48:36.675Z,9.07
2019-04-28T19:51:05.666Z,10.57
2019-04-28T19:53:34.272Z,10.20
2019-04-28T19:56:19.267Z,8.67
2019-04-28T19:58:49.566Z,9.87
2019-04-28T20:03:56.380Z,9.73
2019-04-28T20:06:25.034Z,9.85
2019-04-28T20:08:53.715Z,10.40
2019-04-28T20:11:22.329Z,9.10
2019-04-28T20:13:51.195Z,9.70
2019-04-28T20:16:19.691Z,9.30
2019-04-28T20:18:49.647Z,10.47
2019-04-28T20:21:18.337Z,9.60
2019-04-28T20:23:46.948Z,12.07
2019-04-28T20:26:16.174Z,12.33
2019-04-28T20:28:44.774Z,10.70
2019-04-28T20:31:13.877Z,10.20
2019-04-28T20:33:42.611Z,9.83
2019-04-28T20:36:13.030Z,11.03
2019-04-28T20:38:41.952Z,10.50
2019-04-28T20:41:12.116Z,10.30
2019-04-28T20:43:41.151Z,9.70
2019-04-28T20:46:09.830Z,12.17
2019-04-28T20:48:38.726Z,10.60
2019-04-28T20:51:07.406Z,10.10
2019-04-28T20:53:37.822Z,10.73
2019-04-28T20:56:06.437Z,9.77
2019-04-28T20:58:35.059Z,9.60
2019-04-28T21:01:04.095Z,10.13
2019-04-28T21:03:32.658Z,9.97
2019-04-28T21:06:01.384Z,9.00
2019-04-28T21:08:30.115Z,10.40
2019-04-28T21:10:58.754Z,9.57
2019-04-28T21:13:28.088Z,9.27
2019-04-28T21:15:58.121Z,10.37
2019-04-28T21:18:26.810Z,10.57
2019-04-28T21:20:55.512Z,9.53
2019-04-28T21:23:24.787Z,10.50
2019-04-28T21:25:53.357Z,9.70
2019-04-28T21:28:22.014Z,10.03
2019-04-28T21:30:50.610Z,9.90
2019-04-28T21:33:19.227Z,10.90
2019-04-28T21:35:47.849Z,10.03
2019-04-28T21:38:16.648Z,11.17
2019-04-28T21:40:45.272Z,10.80
2019-04-28T21:43:18.225Z,9.10
2019-04-28T21:46:04.876Z,9.47
2019-04-28T21:48:44.131Z,9.33
2019-04-28T21:51:12.759Z,10.00
2019-04-28T21:53:41.952Z,9.23
2019-04-28T21:56:10.543Z,8.60
2019-04-28T21:58:39.075Z,9.50
2019-04-28T22:01:09.012Z,9.70
2019-04-28T22:03:37.625Z,9.20
2019-04-28T22:06:06.217Z,8.07
2019-04-28T22:08:34.962Z,8.60
2019-04-28T22:11:04.125Z,8.90
2019-04-28T22:13:32.794Z,9.97
2019-04-28T22:16:01.384Z,9.50
2019-04-28T22:18:29.909Z,8.95
2019-04-28T22:20:58.635Z,8.80
2019-04-28T22:23:47.074Z,9.90
2019-04-28T22:26:33.356Z,9.55
2019-04-28T22:29:01.890Z,10.35
2019-04-28T22:31:30.551Z,10.40
2019-04-28T22:33:59.173Z,10.40
2019-04-28T22:36:27.696Z,10.00
2019-04-28T22:38:56.859Z,9.60
2019-04-28T22:41:25.656Z,9.60
2019-04-28T22:43:54.259Z,10.00
2019-04-28T22:46:22.967Z,9.83
2019-04-28T22:48:53.237Z,9.97
2019-04-28T22:51:21.860Z,10.10
2019-04-28T22:53:50.530Z,9.63
2019-04-28T22:56:24.249Z,9.30
2019-04-28T22:59:06.295Z,10.07
2019-04-28T23:01:45.363Z,9.80
2019-04-28T23:04:15.718Z,9.77
2019-04-28T23:06:44.495Z,10.10
2019-04-28T23:09:14.977Z,10.60
2019-04-28T23:11:43.586Z,10.87
2019-04-28T23:14:12.355Z,11.30
2019-04-28T23:16:41.211Z,10.60
2019-04-28T23:19:11.511Z,9.30
2019-04-28T23:21:53.860Z,11.80
2019-04-28T23:24:22.454Z,10.80
2019-04-28T23:26:51.040Z,10.57
2019-04-28T23:29:19.589Z,10.77
2019-04-28T23:31:48.276Z,11.53
2019-04-28T23:34:16.896Z,11.80
2019-04-28T23:36:45.486Z,11.70
2019-04-28T23:39:14.135Z,12.90
2019-04-28T23:41:53.433Z,12.00
2019-04-28T23:44:22.239Z,12.13
2019-04-28T23:46:58.204Z,11.30
2019-04-28T23:49:27.942Z,12.30
2019-04-28T23:52:10.164Z,11.47
2019-04-28T23:54:40.869Z,11.30
2019-04-28T23:57:09.622Z,12.00
2019-04-28T23:59:38.226Z,10.40
